Time;durP1;ratioP1;P1;durP2;ratioP2;P2;SDS_P1;SDS_P2;PMS_P1;PMS_P2;Temp;Humidity;BMP_temperature;BMP_pressure;BME280_temperature;BME280_humidity;BME280_pressure;Samples;Min_cycle;Max_cycle;Signal;HPM_P1;HPM_P2
2022/05/13 08:09:17;;;;;;;18.55;16.58;;;;;;;14.86;64.48;101853.59;6496305;22;1193588;-81
2022/05/13 08:11:48;;;;;;;28.65;18.02;;;;;;;14.72;64.34;101859.81;6514841;22;20035;-82
2022/05/13 08:14:20;;;;;;;12.05;5.47;;;;;;;14.81;64.09;101856.41;6512880;23;20003;-83
2022/05/13 08:16:51;;;;;;;12.90;5.78;;;;;;;14.78;64.79;101852.25;6514820;23;19996;-82
2022/05/13 08:19:22;;;;;;;12.15;5.68;;;;;;;14.73;64.46;101852.31;6513606;23;20007;-83
2022/05/13 08:21:53;;;;;;;15.27;5.57;;;;;;;14.84;64.85;101867.00;6512591;23;20036;-81
2022/05/13 08:24:25;;;;;;;9.63;5.68;;;;;;;14.88;63.74;101859.69;6522353;22;20018;-76
2022/05/13 08:26:56;;;;;;;12.60;4.85;;;;;;;14.82;62.76;101867.28;6543871;22;20030;-76
2022/05/13 08:29:27;;;;;;;9.82;4.82;;;;;;;14.88;62.49;101866.13;6544955;22;20030;-77
2022/05/13 08:31:58;;;;;;;11.38;5.07;;;;;;;15.08;63.25;101862.28;6545798;22;20003;-76
2022/05/13 08:34:30;;;;;;;9.63;4.10;;;;;;;14.99;61.01;101862.09;6544156;22;20004;-75
2022/05/13 08:37:01;;;;;;;11.90;4.78;;;;;;;14.99;61.54;101873.25;6545038;22;20011;-76
2022/05/13 08:39:32;;;;;;;7.03;4.50;;;;;;;15.11;59.66;101860.84;6545369;22;20018;-76
2022/05/13 08:42:09;;;;;;;8.75;4.65;;;;;;;15.10;60.88;101865.59;6544605;22;20003;-76
2022/05/13 08:44:41;;;;;;;10.02;5.03;;;;;;;15.09;61.55;101858.38;6544766;22;20407;-76
2022/05/13 08:47:28;;;;;;;11.07;4.47;;;;;;;15.20;61.74;101864.66;6544955;22;20053;-78
2022/05/13 08:50:15;;;;;;;10.77;5.10;;;;;;;15.46;61.26;101873.59;6543885;22;20037;-75
2022/05/13 08:53:11;;;;;;;11.55;5.03;;;;;;;15.58;60.36;101864.78;6545291;22;20004;-75
2022/05/13 08:55:47;;;;;;;;;;;;;;;15.61;60.48;101865.00;6544301;22;20011;-74
2022/05/13 08:58:27;;;;;;;9.88;4.65;;;;;;;15.66;59.22;101855.72;6545169;22;19907;-76
2022/05/13 09:01:01;;;;;;;11.52;5.03;;;;;;;15.58;59.08;101870.38;6544630;22;20423;-74
2022/05/13 09:03:48;;;;;;;8.55;4.88;;;;;;;15.70;58.62;101868.03;6516918;22;20019;-74
2022/05/13 09:06:22;;;;;;;17.02;13.32;;;;;;;15.71;58.67;101875.28;6544246;22;20003;-75
2022/05/13 09:09:00;;;;;;;13.50;9.27;;;;;;;15.65;57.87;101871.69;6514325;22;20431;-75
2022/05/13 09:11:38;;;;;;;7.95;3.50;;;;;;;15.70;56.56;101861.56;6536931;22;20238;-75
2022/05/13 09:14:44;;;;;;;7.85;3.55;;;;;;;15.88;57.10;101869.19;6536912;22;20014;-75
2022/05/13 09:17:35;;;;;;;8.48;4.00;;;;;;;15.97;56.87;101867.34;6536532;22;20012;-76
2022/05/13 09:20:15;;;;;;;7.00;3.80;;;;;;;15.96;57.15;101867.69;6537424;22;20094;-75
2022/05/13 09:22:58;;;;;;;22.73;17.25;;;;;;;16.11;57.05;101875.03;6537381;22;20130;-74
2022/05/13 09:26:09;;;;;;;7.43;3.40;;;;;;;16.04;55.03;101876.22;6535085;22;20031;-73
2022/05/13 09:29:03;;;;;;;8.35;3.42;;;;;;;15.68;55.90;101869.44;6537817;22;20016;-77
2022/05/13 09:31:44;;;;;;;6.10;2.92;;;;;;;15.76;55.97;101872.41;6536448;22;20308;-75
2022/05/13 09:34:46;;;;;;;6.72;3.55;;;;;;;16.06;55.93;101876.75;6537420;22;20007;-77
2022/05/13 09:37:21;;;;;;;6.72;3.15;;;;;;;16.12;55.48;101876.69;6536522;22;20000;-77
2022/05/13 09:40:21;;;;;;;7.43;3.40;;;;;;;16.12;55.88;101873.88;6537592;22;20008;-78
2022/05/13 09:42:58;;;;;;;10.00;3.60;;;;;;;16.19;54.73;101871.53;6537756;22;20031;-80
2022/05/13 09:45:33;;;;;;;6.85;3.85;;;;;;;16.21;55.03;101881.28;6537196;22;20015;-78
2022/05/13 09:48:19;;;;;;;7.88;2.95;;;;;;;15.97;53.75;101878.53;6538035;22;20019;-79
2022/05/13 09:51:13;;;;;;;9.50;3.65;;;;;;;16.21;53.82;101875.69;6537552;22;20007;-76
2022/05/13 09:54:00;;;;;;;6.80;2.90;;;;;;;16.23;54.17;101884.63;6521760;22;20019;-77
2022/05/13 09:57:02;;;;;;;6.28;2.30;;;;;;;16.32;53.30;101883.94;6536568;22;19999;-76
2022/05/13 09:59:43;;;;;;;9.30;3.05;;;;;;;16.40;52.68;101880.44;6536052;22;20157;-79
2022/05/13 10:02:24;;;;;;;8.10;2.58;;;;;;;16.49;52.97;101887.03;6536337;22;20004;-80
2022/05/13 10:05:10;;;;;;;30.20;24.80;;;;;;;16.76;51.52;101875.09;6537877;22;20004;-80
2022/05/13 10:07:55;;;;;;;7.70;3.17;;;;;;;16.72;51.29;101876.84;6536457;22;19995;-78
2022/05/13 10:13:59;;;;;;;6.80;2.75;;;;;;;16.71;51.56;101889.19;6539305;22;20008;-78
2022/05/13 10:16:42;;;;;;;7.22;2.72;;;;;;;16.74;51.53;101894.16;6537122;22;20015;-79
2022/05/13 10:19:25;;;;;;;8.50;2.80;;;;;;;16.74;51.78;101894.16;6536151;22;20029;-77
2022/05/13 10:22:15;;;;;;;5.85;2.50;;;;;;;16.51;52.31;101896.78;6536178;22;20039;-77
2022/05/13 10:25:00;;;;;;;8.98;3.65;;;;;;;16.38;52.62;101894.75;6537021;22;20431;-79
2022/05/13 10:27:51;;;;;;;6.95;3.50;;;;;;;16.52;53.14;101895.66;6535826;22;20051;-77
2022/05/13 10:30:50;;;;;;;9.40;2.70;;;;;;;16.67;52.58;101893.75;6537266;22;20003;-78
2022/05/13 10:33:30;;;;;;;7.65;2.72;;;;;;;16.80;51.84;101887.38;6481083;22;20415;-77
2022/05/13 10:36:12;;;;;;;8.77;3.10;;;;;;;16.76;51.94;101896.66;6536371;22;20376;-76
2022/05/13 10:38:51;;;;;;;7.80;3.03;;;;;;;16.71;52.02;101890.00;6536082;22;20061;-77
2022/05/13 10:41:32;;;;;;;12.85;3.15;;;;;;;16.78;50.83;101895.25;6536220;22;20000;-78
2022/05/13 10:44:14;;;;;;;7.20;2.85;;;;;;;16.79;49.72;101879.28;6537095;22;20019;-78
2022/05/13 10:47:00;;;;;;;13.77;5.18;;;;;;;16.92;49.90;101884.94;6536370;22;20412;-78
2022/05/13 10:49:37;;;;;;;6.32;2.35;;;;;;;17.01;49.44;101893.44;6536085;22;20376;-78
2022/05/13 10:52:24;;;;;;;8.00;2.95;;;;;;;16.98;50.19;101885.66;6536390;22;20004;-77
2022/05/13 10:55:23;;;;;;;11.13;5.05;;;;;;;16.93;51.38;101878.16;6535595;22;20062;-76
2022/05/13 10:58:00;;;;;;;13.80;9.70;;;;;;;16.84;51.13;101891.22;6535980;22;20345;-78
2022/05/13 11:00:49;;;;;;;8.02;3.30;;;;;;;16.89;50.89;101888.31;6536181;22;20277;-76
2022/05/13 11:03:37;;;;;;;8.27;2.72;;;;;;;16.86;50.63;101888.94;6535612;22;20028;-78
2022/05/13 11:06:31;;;;;;;8.05;4.82;;;;;;;17.01;50.96;101895.44;6536029;22;20011;-78
2022/05/13 11:09:09;;;;;;;7.72;3.20;;;;;;;17.04;50.50;101884.41;6535385;22;20008;-79
2022/05/13 11:11:45;;;;;;;10.05;3.40;;;;;;;17.22;50.55;101896.69;6536581;22;20007;-78
2022/05/13 11:14:26;;;;;;;16.80;5.05;;;;;;;17.11;50.26;101884.84;6536298;22;20316;-78
2022/05/13 11:17:25;;;;;;;5.97;2.55;;;;;;;17.40;48.55;101889.34;6534646;22;20004;-81
2022/05/13 11:20:24;;;;;;;9.85;4.20;;;;;;;17.59;48.30;101889.25;6536266;22;20004;-82
2022/05/13 11:23:15;;;;;;;8.88;3.10;;;;;;;17.60;48.62;101896.50;6535357;22;20057;-81
2022/05/13 11:26:08;;;;;;;7.25;3.00;;;;;;;17.38;49.00;101894.41;6536258;22;20069;-81
2022/05/13 11:29:00;;;;;;;6.35;2.95;;;;;;;16.92;49.93;101890.53;6533093;22;20035;-81
2022/05/13 11:31:46;;;;;;;8.98;5.90;;;;;;;16.97;50.26;101903.59;6535868;22;20008;-79
2022/05/13 11:34:29;;;;;;;12.07;3.78;;;;;;;17.07;49.73;101885.78;6536758;22;20030;-80
2022/05/13 11:37:04;;;;;;;7.97;4.47;;;;;;;17.07;49.30;101895.00;6535615;22;20057;-80
2022/05/13 11:39:35;;;;;;;7.50;4.25;;;;;;;17.04;49.20;101894.81;6537245;22;20066;-78
2022/05/13 11:42:15;;;;;;;10.50;2.93;;;;;;;16.99;49.00;101897.69;6536939;22;19999;-81
2022/05/13 11:45:09;;;;;;;7.00;3.00;;;;;;;17.19;49.32;101891.72;6536360;22;20226;-75
2022/05/13 11:48:09;;;;;;;5.75;3.05;;;;;;;17.28;49.89;101886.22;6536888;22;20054;-81
2022/05/13 11:50:41;;;;;;;6.68;3.13;;;;;;;17.32;48.88;101890.91;6537315;22;20065;-82
2022/05/13 11:53:41;;;;;;;9.18;4.38;;;;;;;17.57;49.46;101885.94;6535747;22;20004;-81
2022/05/13 11:56:31;;;;;;;6.32;3.70;;;;;;;17.59;47.92;101886.44;6537030;22;20008;-80
2022/05/13 11:59:29;;;;;;;8.15;3.90;;;;;;;17.54;48.57;101892.16;6535381;22;20061;-77
2022/05/13 12:02:29;;;;;;;8.85;3.15;;;;;;;17.64;48.36;101889.16;6488368;22;20047;-79
2022/05/13 12:05:24;;;;;;;8.05;3.38;;;;;;;17.79;48.59;101891.66;6535295;22;20003;-80
2022/05/13 12:08:08;;;;;;;6.00;3.92;;;;;;;17.83;47.83;101896.66;6508825;22;20004;-80
2022/05/13 12:10:56;;;;;;;10.10;3.90;;;;;;;17.84;48.34;101890.69;6536222;22;20007;-80
2022/05/13 12:13:36;;;;;;;5.90;5.03;;;;;;;17.80;47.61;101900.91;6535195;22;20012;-80
2022/05/13 12:16:19;;;;;;;9.10;4.40;;;;;;;17.62;47.99;101896.22;6536491;22;20443;-79
2022/05/13 12:19:18;;;;;;;9.30;4.93;;;;;;;17.44;47.95;101897.97;6537108;22;20063;-79
2022/05/13 12:21:58;;;;;;;10.80;4.95;;;;;;;17.56;48.02;101885.09;6538828;22;20011;-78
2022/05/13 12:25:01;;;;;;;7.10;4.43;;;;;;;17.45;48.74;101892.03;6539025;22;20088;-79
2022/05/13 12:27:42;;;;;;;9.00;4.60;;;;;;;17.61;48.59;101889.75;6538208;22;20010;-79
2022/05/13 12:30:34;;;;;;;9.20;5.00;;;;;;;17.75;48.75;101887.78;6537180;22;20492;-78
2022/05/13 12:33:24;;;;;;;7.60;5.55;;;;;;;17.70;47.47;101892.69;6535480;22;20004;-78
2022/05/13 12:39:17;;;;;;;8.35;7.55;;;;;;;17.65;48.31;101893.59;6536258;22;20424;-80
2022/05/13 12:42:10;;;;;;;9.73;8.02;;;;;;;17.70;48.37;101890.69;6536271;22;20004;-77
2022/05/13 12:45:00;;;;;;;13.68;9.77;;;;;;;17.86;47.83;101881.97;6537885;22;20014;-78
2022/05/13 12:47:59;;;;;;;10.32;9.32;;;;;;;18.21;47.31;101886.78;6538361;22;20003;-79
2022/05/13 12:51:03;;;;;;;9.98;9.00;;;;;;;18.33;46.51;101886.25;6538076;22;20012;-77
2022/05/13 12:53:54;;;;;;;10.23;7.97;;;;;;;18.65;46.31;101887.97;6537310;22;20113;-74
2022/05/13 12:56:26;;;;;;;11.05;8.23;;;;;;;18.79;45.33;101887.09;6536207;22;20060;-74
2022/05/13 12:59:16;;;;;;;10.93;7.97;;;;;;;18.78;46.04;101891.06;6537004;22;20004;-74
2022/05/13 13:01:50;;;;;;;10.38;8.48;;;;;;;18.78;45.32;101877.00;6536447;22;20240;-75
2022/05/13 13:04:25;;;;;;;12.18;8.40;;;;;;;18.90;45.39;101878.09;6536889;22;20096;-74
2022/05/13 13:07:08;;;;;;;10.18;9.27;;;;;;;18.94;45.04;101867.03;6536982;22;20091;-74
2022/05/13 13:09:42;;;;;;;11.63;10.43;;;;;;;18.80;44.83;101872.72;6535794;22;20011;-74
2022/05/13 13:12:23;;;;;;;9.82;8.82;;;;;;;18.80;45.17;101863.47;6537574;22;20004;-71
2022/05/13 13:15:01;;;;;;;13.18;8.93;;;;;;;18.93;45.47;101871.00;6536420;22;20003;-75
2022/05/13 13:17:40;;;;;;;12.70;9.00;;;;;;;19.05;44.78;101862.78;6535876;22;19999;-74
2022/05/13 13:20:15;;;;;;;12.63;9.13;;;;;;;19.11;44.73;101864.31;6537562;22;20259;-72
2022/05/13 13:22:53;;;;;;;14.23;10.07;;;;;;;19.23;44.73;101871.31;6536580;22;20070;-73
2022/05/13 13:25:34;;;;;;;16.15;10.48;;;;;;;19.38;44.75;101870.88;6536458;22;20039;-73
2022/05/13 13:28:09;;;;;;;14.70;9.20;;;;;;;19.34;44.84;101870.69;6537795;22;20416;-72
2022/05/13 13:30:44;;;;;;;11.48;10.15;;;;;;;19.04;45.27;101858.31;6536304;22;20003;-72
2022/05/13 13:33:15;;;;;;;11.05;9.95;;;;;;;19.58;44.42;101858.19;6537380;22;20450;-72
2022/05/13 13:35:51;;;;;;;12.55;9.55;;;;;;;19.54;43.48;101858.03;6536576;22;20004;-71
2022/05/13 13:38:22;;;;;;;12.65;11.30;;;;;;;19.50;43.18;101861.81;6535435;22;20012;-75
2022/05/13 13:40:54;;;;;;;11.05;9.95;;;;;;;19.49;43.72;101849.75;6536764;22;20431;-70
2022/05/13 13:43:29;;;;;;;11.68;8.85;;;;;;;19.45;43.95;101859.97;6535588;22;20312;-71
2022/05/13 13:46:06;;;;;;;16.25;11.75;;;;;;;19.20;44.14;101855.06;6537521;22;20427;-70
2022/05/13 13:48:46;;;;;;;11.90;7.72;;;;;;;19.53;43.71;101847.94;6537089;22;20095;-73
2022/05/13 13:51:27;;;;;;;9.15;8.25;;;;;;;19.73;43.12;101851.31;6536726;22;20012;-74
2022/05/13 13:54:01;;;;;;;13.68;8.75;;;;;;;19.87;42.72;101851.19;6536855;22;20000;-74
2022/05/13 13:56:37;;;;;;;10.77;8.52;;;;;;;19.82;42.99;101855.00;6536520;22;20066;-75
2022/05/13 13:59:40;;;;;;;11.38;9.20;;;;;;;19.77;43.42;101855.16;6536236;22;20046;-73
2022/05/13 14:02:30;;;;;;;10.30;9.02;;;;;;;19.88;42.85;101850.84;6536873;22;20049;-74
2022/05/13 14:05:04;;;;;;;14.75;9.95;;;;;;;19.80;42.63;101843.22;6535319;22;20007;-74
2022/05/13 14:07:39;;;;;;;12.18;7.72;;;;;;;19.76;42.96;101856.28;6536722;22;20401;-74
2022/05/13 14:10:17;;;;;;;13.32;9.98;;;;;;;19.71;43.40;101846.03;6536546;22;20019;-74
2022/05/13 14:12:48;;;;;;;13.02;11.73;;;;;;;19.73;43.33;101845.69;6535884;22;20012;-73
2022/05/13 14:15:21;;;;;;;10.27;9.15;;;;;;;19.76;42.84;101845.88;6536748;22;20503;-74
2022/05/13 14:17:55;;;;;;;18.83;11.18;;;;;;;19.76;42.91;101843.06;6536360;22;20069;-73
2022/05/13 14:20:36;;;;;;;10.00;9.03;;;;;;;20.19;42.05;101841.44;6535955;22;20471;-76
2022/05/13 14:23:14;;;;;;;9.63;7.30;;;;;;;20.31;42.14;101838.78;6536897;22;20154;-76
2022/05/13 14:25:54;;;;;;;9.60;7.85;;;;;;;20.51;41.71;101830.81;6535359;22;20008;-72
2022/05/13 14:28:33;;;;;;;8.98;7.63;;;;;;;20.61;41.69;101842.59;6536623;22;20104;-73
2022/05/13 14:31:13;;;;;;;10.20;8.90;;;;;;;20.06;41.69;101842.44;6535656;22;20075;-72
2022/05/13 14:33:54;;;;;;;9.52;8.63;;;;;;;20.22;42.00;101843.59;6535938;22;20370;-72
2022/05/13 14:36:38;;;;;;;8.63;6.80;;;;;;;20.41;41.27;101834.81;6536631;22;20008;-74
2022/05/13 14:42:13;;;;;;;13.05;6.43;;;;;;;20.29;41.58;101831.81;6535797;22;20007;-73
2022/05/13 14:44:51;;;;;;;8.82;5.05;;;;;;;20.27;41.92;101840.59;6536623;22;20042;-74
2022/05/13 14:47:25;;;;;;;14.68;4.93;;;;;;;20.24;41.26;101834.81;6535604;22;20007;-75
2022/05/13 14:49:59;;;;;;;7.45;4.90;;;;;;;20.33;41.73;101827.19;6536209;22;20427;-76
2022/05/13 14:52:38;;;;;;;8.43;4.40;;;;;;;20.27;41.24;101832.16;6536320;22;20015;-76
2022/05/13 14:55:40;;;;;;;6.55;4.00;;;;;;;20.32;42.08;101826.34;6534922;22;20006;-76
2022/05/13 14:58:37;;;;;;;10.50;4.60;;;;;;;20.28;41.81;101825.38;6482774;22;20016;-74
2022/05/13 15:01:25;;;;;;;14.68;5.85;;;;;;;20.34;42.19;101817.56;6535044;22;20027;-75
2022/05/13 15:03:59;;;;;;;10.55;4.15;;;;;;;20.18;42.13;101817.25;6536277;22;20075;-73
2022/05/13 15:06:34;;;;;;;9.77;4.93;;;;;;;20.16;41.97;101822.38;6534633;22;20043;-75
2022/05/13 15:09:10;;;;;;;8.82;4.45;;;;;;;20.11;42.17;101812.13;6535659;22;20053;-74
2022/05/13 15:11:41;;;;;;;6.57;3.92;;;;;;;20.18;41.42;101806.00;6536479;22;20004;-74
2022/05/13 15:14:13;;;;;;;8.75;3.90;;;;;;;20.24;41.76;101807.47;6535724;22;20328;-73
2022/05/13 15:16:45;;;;;;;10.15;4.40;;;;;;;20.42;41.61;101814.75;6534305;22;20026;-74
2022/05/13 15:19:30;;;;;;;7.10;3.38;;;;;;;20.42;42.02;101811.09;6535473;22;20119;-75
2022/05/13 15:22:08;;;;;;;9.10;3.75;;;;;;;20.53;41.62;101814.38;6535169;22;20026;-74
2022/05/13 15:24:42;;;;;;;22.15;18.15;;;;;;;20.39;42.38;101812.59;6535594;22;20099;-73
2022/05/13 15:27:21;;;;;;;12.85;7.40;;;;;;;20.44;41.49;101810.78;6536202;22;20327;-74
2022/05/13 15:29:53;;;;;;;9.27;4.07;;;;;;;20.53;41.84;101805.94;6535820;22;20408;-75
2022/05/13 15:32:25;;;;;;;12.57;4.30;;;;;;;20.50;41.44;101801.78;6536279;22;20078;-76
2022/05/13 15:34:56;;;;;;;7.45;3.22;;;;;;;20.28;42.09;101800.03;6536519;22;20022;-76
2022/05/13 15:37:28;;;;;;;6.15;3.90;;;;;;;20.37;41.26;101802.81;6535357;22;20019;-76
2022/05/13 15:40:01;;;;;;;7.88;3.05;;;;;;;20.26;41.29;101807.97;6536825;22;20003;-77
2022/05/13 15:42:34;;;;;;;7.82;3.75;;;;;;;20.24;41.51;101812.28;6536315;22;20404;-76
2022/05/13 15:45:06;;;;;;;10.82;3.22;;;;;;;20.20;42.07;101803.69;6532953;22;20015;-77
2022/05/13 15:47:39;;;;;;;9.93;3.03;;;;;;;20.18;42.02;101803.19;6536405;22;20007;-79
2022/05/13 15:53:00;;;;;;;8.63;3.13;;;;;;;20.31;42.07;101802.16;6535265;22;20102;-74
2022/05/13 15:55:46;;;;;;;7.30;3.70;;;;;;;20.30;42.13;101802.50;6535370;22;20031;-77
2022/05/13 15:58:37;;;;;;;12.65;3.50;;;;;;;20.38;42.38;101796.88;6534894;22;20004;-76
2022/05/13 16:01:09;;;;;;;11.25;3.38;;;;;;;20.44;41.86;101803.16;6535967;22;20004;-73
2022/05/13 16:03:41;;;;;;;8.80;3.22;;;;;;;20.50;41.27;101807.44;6536205;22;20030;-75
2022/05/13 16:06:12;;;;;;;6.63;2.80;;;;;;;20.49;41.10;101802.16;6534907;22;20061;-75
2022/05/13 16:08:46;;;;;;;7.35;2.40;;;;;;;20.46;41.61;101795.19;6535021;22;20008;-73
2022/05/13 16:11:25;;;;;;;6.30;2.50;;;;;;;20.48;41.71;101800.47;6534945;22;20423;-74
2022/05/13 16:13:57;;;;;;;5.13;3.00;;;;;;;20.54;41.29;101801.97;6535151;22;20026;-74
2022/05/13 16:16:34;;;;;;;9.65;2.58;;;;;;;20.53;41.47;101809.59;6535818;22;20014;-75
2022/05/13 16:19:08;;;;;;;9.07;3.15;;;;;;;20.39;41.63;101801.31;6535348;22;20443;-75
2022/05/13 16:21:40;;;;;;;8.20;2.25;;;;;;;20.42;41.49;101800.66;6536333;22;20030;-75
2022/05/13 16:24:20;;;;;;;8.02;2.67;;;;;;;20.45;41.94;101801.16;6538092;22;20003;-74
2022/05/13 16:26:52;;;;;;;7.82;2.60;;;;;;;20.37;41.49;101788.72;6536831;22;20463;-75
2022/05/13 16:29:24;;;;;;;8.20;2.58;;;;;;;20.47;41.87;101787.56;6511050;22;20083;-75
2022/05/13 16:31:55;;;;;;;9.63;3.08;;;;;;;20.48;41.44;101794.84;6538172;22;20024;-75
2022/05/13 16:34:27;;;;;;;11.15;2.80;;;;;;;20.43;41.85;101795.88;6536757;22;20019;-75
2022/05/13 16:39:49;;;;;;;8.05;2.20;;;;;;;20.90;41.64;101783.84;6537398;22;20012;-77
2022/05/13 16:42:20;;;;;;;9.65;2.92;;;;;;;20.78;42.13;101779.72;6537751;22;20419;-75
2022/05/13 16:44:51;;;;;;;9.60;2.70;;;;;;;20.75;41.46;101788.03;6537500;22;20446;-75
2022/05/13 16:47:24;;;;;;;8.68;2.22;;;;;;;20.82;41.03;101782.69;6536038;22;20000;-75
2022/05/13 16:49:55;;;;;;;8.93;2.30;;;;;;;20.75;41.57;101793.66;6537129;22;20315;-75
2022/05/13 16:52:27;;;;;;;6.30;2.05;;;;;;;20.71;41.59;101789.84;6537532;22;20074;-75
2022/05/13 16:54:59;;;;;;;8.82;2.58;;;;;;;20.77;41.64;101783.69;6537129;22;20002;-74
2022/05/13 16:57:30;;;;;;;6.28;2.55;;;;;;;20.63;41.57;101785.88;6537635;22;20016;-75
2022/05/13 17:00:15;;;;;;;10.27;2.33;;;;;;;20.76;41.42;101784.03;6536208;22;20031;-75
2022/05/13 17:02:47;;;;;;;5.47;2.50;;;;;;;20.70;41.02;101791.84;6536933;22;20014;-75
2022/05/13 17:05:18;;;;;;;8.45;2.78;;;;;;;20.83;41.17;101795.63;6537453;22;20004;-74
2022/05/13 17:07:49;;;;;;;8.00;2.63;;;;;;;20.70;40.96;101794.66;6536847;22;20015;-74
2022/05/13 17:16:23;;;;;;;6.38;2.63;;;;;;;20.84;41.49;101798.13;6536610;22;20007;-76
2022/05/13 17:19:15;;;;;;;9.05;2.30;;;;;;;20.88;41.50;101795.44;6538109;22;20039;-76
2022/05/13 17:21:48;;;;;;;14.60;6.43;;;;;;;21.00;41.05;101797.56;6536938;22;20026;-74
2022/05/13 17:24:33;;;;;;;6.43;2.47;;;;;;;20.94;40.89;101798.88;6537091;22;20003;-76
2022/05/13 17:27:18;;;;;;;6.20;2.38;;;;;;;20.88;40.57;101786.97;6537479;22;20486;-73
2022/05/13 17:29:50;;;;;;;9.85;2.38;;;;;;;20.87;41.28;101795.78;6535959;22;20399;-76
